createdAt,value
2019-04-01T00:00:59.706Z,47.30
2019-04-01T00:03:31.818Z,47.60
2019-04-01T00:06:04.637Z,47.80
2019-04-01T00:08:37.578Z,47.90
2019-04-01T00:11:09.942Z,48.20
2019-04-01T00:13:42.318Z,48.20
2019-04-01T00:16:16.017Z,48.40
2019-04-01T00:19:02.039Z,48.60
2019-04-01T00:21:23.941Z,48.60
2019-04-01T00:23:57.738Z,48.80
2019-04-01T00:26:30.778Z,48.90
2019-04-01T00:29:04.178Z,48.90
2019-04-01T00:31:37.738Z,48.90
2019-04-01T00:34:10.238Z,49.10
2019-04-01T00:36:42.779Z,49.30
2019-04-01T00:39:14.918Z,49.30
2019-04-01T00:42:06.697Z,49.40
2019-04-01T00:44:40.474Z,49.50
2019-04-01T00:47:13.578Z,49.80
2019-04-01T00:49:46.478Z,49.90
2019-04-01T00:52:19.557Z,50.10
2019-04-01T00:54:52.661Z,50.00
2019-04-01T00:57:25.277Z,50.00
2019-04-01T00:59:58.177Z,50.00
2019-04-01T01:02:31.237Z,50.00
2019-04-01T01:05:03.997Z,50.00
2019-04-01T01:07:36.238Z,50.00
2019-04-01T01:10:10.417Z,49.80
2019-04-01T01:12:44.098Z,50.10
2019-04-01T01:15:17.462Z,50.10
2019-04-01T01:17:50.257Z,50.10
2019-04-01T01:20:24.118Z,50.20
2019-04-01T01:22:56.718Z,50.20
2019-04-01T01:25:29.518Z,50.40
2019-04-01T01:28:02.178Z,50.50
2019-04-01T01:30:36.097Z,50.70
2019-04-01T01:33:08.777Z,50.70
2019-04-01T01:35:41.839Z,50.90
2019-04-01T01:38:14.518Z,50.90
2019-04-01T01:40:46.799Z,50.80
2019-04-01T01:43:19.899Z,50.80
2019-04-01T01:45:52.463Z,50.60
2019-04-01T01:48:24.558Z,51.20
2019-04-01T01:50:57.080Z,51.10
2019-04-01T01:53:30.398Z,51.20
2019-04-01T01:56:03.119Z,51.70
2019-04-01T01:58:35.998Z,52.00
2019-04-01T02:01:09.039Z,52.00
2019-04-01T02:03:41.818Z,51.90
2019-04-01T02:06:15.358Z,52.00
2019-04-01T02:08:48.198Z,52.10
2019-04-01T02:11:20.678Z,52.40
2019-04-01T02:13:53.362Z,52.50
2019-04-01T02:16:26.799Z,52.30
2019-04-01T02:18:59.778Z,52.50
2019-04-01T02:21:32.618Z,52.70
2019-04-01T02:24:04.777Z,52.80
2019-04-01T02:26:37.878Z,52.80
2019-04-01T02:29:10.640Z,52.90
2019-04-01T02:31:43.980Z,52.80
2019-04-01T02:34:17.101Z,52.90
2019-04-01T02:36:50.260Z,53.00
2019-04-01T02:39:23.099Z,53.00
2019-04-01T02:41:55.880Z,53.60
2019-04-01T02:44:28.923Z,53.10
2019-04-01T02:47:01.946Z,53.40
2019-04-01T02:49:34.339Z,53.40
2019-04-01T02:52:07.287Z,53.50
2019-04-01T02:54:39.998Z,53.50
2019-04-01T02:57:13.098Z,54.00
2019-04-01T02:59:45.179Z,53.40
2019-04-01T03:02:18.178Z,53.50
2019-04-01T03:04:51.564Z,53.60
2019-04-01T03:07:24.139Z,53.80
2019-04-01T03:09:56.939Z,54.00
2019-04-01T03:12:29.539Z,54.20
2019-04-01T03:15:02.339Z,54.20
2019-04-01T03:17:35.729Z,54.40
2019-04-01T03:20:09.239Z,54.70
2019-04-01T03:22:42.697Z,54.70
2019-04-01T03:25:14.899Z,54.60
2019-04-01T03:27:47.439Z,54.60
2019-04-01T03:30:20.433Z,54.70
2019-04-01T03:32:54.399Z,54.70
2019-04-01T03:35:26.839Z,54.70
2019-04-01T03:37:59.339Z,54.60
2019-04-01T03:40:32.342Z,54.80
2019-04-01T03:43:06.839Z,55.00
2019-04-01T03:45:39.479Z,55.10
2019-04-01T03:48:12.022Z,55.20
2019-04-01T03:50:44.297Z,55.30
2019-04-01T03:53:17.360Z,55.50
2019-04-01T03:55:49.478Z,55.40
2019-04-01T03:58:21.995Z,55.50
2019-04-01T04:00:54.459Z,55.40
2019-04-01T04:03:27.761Z,55.30
2019-04-01T04:06:00.538Z,55.20
2019-04-01T04:08:33.541Z,55.30
2019-04-01T04:11:06.358Z,55.40
2019-04-01T04:13:38.919Z,56.70
2019-04-01T04:16:12.978Z,56.90
2019-04-01T04:18:46.957Z,57.40
2019-04-01T04:21:23.639Z,57.70
2019-04-01T04:23:54.077Z,58.10
2019-04-01T04:26:27.022Z,58.10
2019-04-01T04:29:00.560Z,58.10
2019-04-01T04:31:35.118Z,58.20
2019-04-01T04:34:08.557Z,58.40
2019-04-01T04:36:41.479Z,58.40
2019-04-01T04:39:15.119Z,58.40
2019-04-01T04:41:49.218Z,58.20
2019-04-01T04:44:21.998Z,58.10
2019-04-01T04:46:55.198Z,58.20
2019-04-01T04:49:29.518Z,58.40
2019-04-01T04:52:04.580Z,58.50
2019-04-01T04:54:37.140Z,58.40
2019-04-01T04:57:10.666Z,58.60
2019-04-01T04:59:43.401Z,58.60
2019-04-01T05:02:15.299Z,58.70
2019-04-01T05:04:48.957Z,58.70
2019-04-01T05:07:21.397Z,58.60
2019-04-01T05:09:54.797Z,58.70
2019-04-01T05:12:27.202Z,58.90
2019-04-01T05:15:00.542Z,59.30
2019-04-01T05:17:33.298Z,59.30
2019-04-01T05:20:06.477Z,59.50
2019-04-01T05:22:40.138Z,59.50
2019-04-01T05:25:12.884Z,59.50
2019-04-01T05:27:46.237Z,59.50
2019-04-01T05:30:19.417Z,59.30
2019-04-01T05:32:54.497Z,59.30
2019-04-01T05:35:27.818Z,59.40
2019-04-01T05:38:00.067Z,60.60
2019-04-01T05:40:33.079Z,59.90
2019-04-01T05:43:06.377Z,59.50
2019-04-01T05:45:39.737Z,59.80
2019-04-01T05:48:12.917Z,59.70
2019-04-01T05:50:45.678Z,59.80
2019-04-01T05:53:18.977Z,60.10
2019-04-01T05:55:53.058Z,60.30
2019-04-01T05:58:26.597Z,60.40
2019-04-01T06:01:05.559Z,60.70
2019-04-01T06:03:38.585Z,60.60
2019-04-01T06:06:11.439Z,60.90
2019-04-01T06:08:45.157Z,60.90
2019-04-01T06:11:18.537Z,61.00
2019-04-01T06:13:50.967Z,62.30
2019-04-01T06:16:24.397Z,64.50
2019-04-01T06:18:57.100Z,65.10
2019-04-01T06:21:30.157Z,63.70
2019-04-01T06:24:03.578Z,63.10
2019-04-01T06:26:36.537Z,63.30
2019-04-01T06:29:09.357Z,62.10
2019-04-01T06:31:43.057Z,60.90
2019-04-01T06:34:16.097Z,60.90
2019-04-01T06:36:48.957Z,60.90
2019-04-01T06:39:22.077Z,60.90
2019-04-01T06:41:56.277Z,60.80
2019-04-01T06:44:29.297Z,60.60
2019-04-01T06:47:01.797Z,60.70
2019-04-01T06:49:34.441Z,60.20
2019-04-01T06:52:07.721Z,60.00
2019-04-01T06:54:40.557Z,59.70
2019-04-01T06:57:13.737Z,59.60
2019-04-01T06:59:46.619Z,59.60
2019-04-01T07:02:19.557Z,59.10
2019-04-01T07:04:52.940Z,59.50
2019-04-01T07:07:25.717Z,58.70
2019-04-01T07:09:59.364Z,59.10
2019-04-01T07:12:32.462Z,59.20
2019-04-01T07:15:05.051Z,58.90
2019-04-01T07:17:37.520Z,59.10
2019-04-01T07:20:10.761Z,58.50
2019-04-01T07:22:43.055Z,58.60
2019-04-01T07:25:15.282Z,58.40
2019-04-01T07:27:47.933Z,58.40
2019-04-01T07:30:21.453Z,58.30
2019-04-01T07:32:53.305Z,57.20
2019-04-01T07:35:26.458Z,57.00
2019-04-01T07:37:59.001Z,56.50
2019-04-01T07:40:31.653Z,56.20
2019-04-01T07:43:04.699Z,56.30
2019-04-01T07:45:38.540Z,55.70
2019-04-01T07:48:12.646Z,55.70
2019-04-01T07:50:45.964Z,55.30
2019-04-01T07:53:18.653Z,55.40
2019-04-01T07:55:50.519Z,55.30
2019-04-01T07:58:23.502Z,55.00
2019-04-01T08:00:56.098Z,54.30
2019-04-01T08:03:28.873Z,54.50
2019-04-01T08:06:01.734Z,53.70
2019-04-01T08:08:34.855Z,53.40
2019-04-01T08:11:07.181Z,53.40
2019-04-01T08:13:40.413Z,52.80
2019-04-01T08:16:13.813Z,52.60
2019-04-01T08:18:46.613Z,53.20
2019-04-01T08:21:19.494Z,52.50
2019-04-01T08:23:52.553Z,52.70
2019-04-01T08:26:25.117Z,52.60
2019-04-01T08:28:57.600Z,52.60
2019-04-01T08:31:29.999Z,52.40
2019-04-01T08:34:02.590Z,52.50
2019-04-01T08:36:35.056Z,51.80
2019-04-01T08:39:10.725Z,51.70
2019-04-01T08:41:42.525Z,51.60
2019-04-01T08:44:15.966Z,52.00
2019-04-01T08:46:49.328Z,52.40
2019-04-01T08:49:21.331Z,51.70
2019-04-01T08:51:53.751Z,51.80
2019-04-01T08:54:26.808Z,52.60
2019-04-01T08:56:58.970Z,51.80
2019-04-01T08:59:31.810Z,51.90
2019-04-01T09:02:17.027Z,51.70
2019-04-01T09:04:39.468Z,51.80
2019-04-01T09:07:12.487Z,52.20
2019-04-01T09:09:47.629Z,52.50
2019-04-01T09:12:21.553Z,52.80
2019-04-01T09:14:56.452Z,54.10
2019-04-01T09:17:29.233Z,55.70
2019-04-01T09:20:01.793Z,56.80
2019-04-01T09:22:34.472Z,57.80
2019-04-01T09:25:07.069Z,58.10
2019-04-01T09:27:39.513Z,58.40
2019-04-01T09:30:12.473Z,58.60
2019-04-01T09:32:44.633Z,58.60
2019-04-01T09:35:17.795Z,58.60
2019-04-01T09:37:51.573Z,58.50
2019-04-01T09:40:24.733Z,57.90
2019-04-01T09:42:57.073Z,57.50
2019-04-01T09:45:29.519Z,57.50
2019-04-01T09:48:03.440Z,57.20
2019-04-01T09:50:35.758Z,57.60
2019-04-01T09:53:08.317Z,57.40
2019-04-01T09:55:41.144Z,56.30
2019-04-01T09:58:13.844Z,56.60
2019-04-01T10:00:47.518Z,56.60
2019-04-01T10:03:20.493Z,55.50
2019-04-01T10:05:53.936Z,55.90
2019-04-01T10:08:41.104Z,55.10
2019-04-01T10:11:01.196Z,54.90
2019-04-01T10:13:33.855Z,55.10
2019-04-01T10:16:06.695Z,54.10
2019-04-01T10:18:40.037Z,54.60
2019-04-01T10:21:12.874Z,54.80
2019-04-01T10:23:45.439Z,54.70
2019-04-01T10:26:17.222Z,54.40
2019-04-01T10:28:49.978Z,54.60
2019-04-01T10:31:22.435Z,54.10
2019-04-01T10:33:55.735Z,53.90
2019-04-01T10:36:28.548Z,53.30
2019-04-01T10:39:01.177Z,53.60
2019-04-01T10:41:34.957Z,51.90
2019-04-01T10:44:08.435Z,51.70
2019-04-01T10:46:41.490Z,52.20
2019-04-01T10:49:13.345Z,52.50
2019-04-01T10:51:46.228Z,51.50
2019-04-01T10:54:20.775Z,51.00
2019-04-01T10:56:53.884Z,50.90
2019-04-01T10:59:27.431Z,49.80
2019-04-01T11:01:59.559Z,49.50
2019-04-01T11:04:32.694Z,48.10
2019-04-01T11:07:06.308Z,48.50
2019-04-01T11:09:39.790Z,48.40
2019-04-01T11:12:12.596Z,48.30
2019-04-01T11:14:45.012Z,47.30
2019-04-01T11:17:18.119Z,47.00
2019-04-01T11:19:51.334Z,47.20
2019-04-01T11:22:24.690Z,47.40
2019-04-01T11:24:57.770Z,46.70
2019-04-01T11:27:30.510Z,45.90
2019-04-01T11:30:03.630Z,45.90
2019-04-01T11:32:36.811Z,46.50
2019-04-01T11:35:09.765Z,46.40
2019-04-01T11:37:42.615Z,45.70
2019-04-01T11:40:15.328Z,46.30
2019-04-01T11:42:48.417Z,46.00
2019-04-01T11:45:20.707Z,45.90
2019-04-01T11:47:53.766Z,45.10
2019-04-01T11:50:26.859Z,45.50
2019-04-01T11:53:00.909Z,45.40
2019-04-01T11:55:33.849Z,44.80
2019-04-01T11:58:07.170Z,44.50
2019-04-01T12:00:40.535Z,44.80
2019-04-01T12:03:12.495Z,45.00
2019-04-01T12:05:47.975Z,44.20
2019-04-01T12:08:20.515Z,44.40
2019-04-01T12:10:53.495Z,44.00
2019-04-01T12:13:26.500Z,44.10
2019-04-01T12:15:58.628Z,44.70
2019-04-01T12:18:31.116Z,44.20
2019-04-01T12:21:03.255Z,43.90
2019-04-01T12:23:36.736Z,43.90
2019-04-01T12:26:15.420Z,44.30
2019-04-01T12:28:44.656Z,44.20
2019-04-01T12:31:17.896Z,44.10
2019-04-01T12:33:50.437Z,44.00
2019-04-01T12:36:23.536Z,43.90
2019-04-01T12:38:56.516Z,44.10
2019-04-01T12:41:29.217Z,43.80
2019-04-01T12:44:02.339Z,44.00
2019-04-01T12:46:35.119Z,43.40
2019-04-01T12:49:09.045Z,43.90
2019-04-01T12:51:42.586Z,43.90
2019-04-01T12:54:15.368Z,45.00
2019-04-01T12:56:48.008Z,44.30
2019-04-01T12:59:21.267Z,44.10
2019-04-01T13:01:54.471Z,43.10
2019-04-01T13:04:27.508Z,43.10
2019-04-01T13:06:59.871Z,43.40
2019-04-01T13:09:33.013Z,42.90
2019-04-01T13:12:06.191Z,42.40
2019-04-01T13:14:40.060Z,42.50
2019-04-01T13:17:13.197Z,41.80
2019-04-01T13:19:45.389Z,41.80
2019-04-01T13:22:18.160Z,41.40
2019-04-01T13:24:51.734Z,41.30
2019-04-01T13:27:23.934Z,40.80
2019-04-01T13:29:56.715Z,40.60
2019-04-01T13:32:29.956Z,40.60
2019-04-01T13:35:03.758Z,40.30
2019-04-01T13:37:35.920Z,40.00
2019-04-01T13:40:08.915Z,40.10
2019-04-01T13:42:43.229Z,40.00
2019-04-01T13:45:16.396Z,39.90
2019-04-01T13:47:49.606Z,40.20
2019-04-01T13:50:22.056Z,40.40
2019-04-01T13:52:55.019Z,40.40
2019-04-01T13:55:27.380Z,40.60
2019-04-01T13:57:59.867Z,41.20
2019-04-01T14:00:33.726Z,41.10
2019-04-01T14:03:07.083Z,41.90
2019-04-01T14:05:39.587Z,42.00
2019-04-01T14:08:12.083Z,42.20
2019-04-01T14:10:46.061Z,42.50
2019-04-01T14:13:18.561Z,42.80
2019-04-01T14:15:51.636Z,43.00
2019-04-01T14:18:25.360Z,43.20
2019-04-01T14:20:58.123Z,43.40
2019-04-01T14:23:30.799Z,43.60
2019-04-01T14:26:02.919Z,43.60
2019-04-01T14:28:36.420Z,43.70
2019-04-01T14:31:09.455Z,43.80
2019-04-01T14:33:41.736Z,44.00
2019-04-01T14:36:14.058Z,44.30
2019-04-01T14:38:47.676Z,44.30
2019-04-01T14:41:21.049Z,44.50
2019-04-01T14:43:55.157Z,44.70
2019-04-01T14:46:28.034Z,44.80
2019-04-01T14:49:01.821Z,45.00
2019-04-01T14:51:34.680Z,45.20
2019-04-01T14:54:07.014Z,45.10
2019-04-01T14:56:39.593Z,45.20
2019-04-01T14:59:12.316Z,45.50
2019-04-01T15:01:45.018Z,45.70
2019-04-01T15:04:16.840Z,45.90
2019-04-01T15:06:49.271Z,46.10
2019-04-01T15:09:23.509Z,46.10
2019-04-01T15:11:56.603Z,46.10
2019-04-01T15:14:29.682Z,46.20
2019-04-01T15:17:02.188Z,46.30
2019-04-01T15:19:35.383Z,46.40
2019-04-01T15:22:07.674Z,46.60
2019-04-01T15:24:40.003Z,46.60
2019-04-01T15:27:13.321Z,46.70
2019-04-01T15:29:45.599Z,46.50
2019-04-01T15:32:18.241Z,46.50
2019-04-01T15:34:50.818Z,46.50
2019-04-01T15:37:25.177Z,46.70
2019-04-01T15:39:57.898Z,46.80
2019-04-01T15:42:30.541Z,46.90
2019-04-01T15:45:02.638Z,46.90
2019-04-01T15:47:34.818Z,47.00
2019-04-01T15:50:08.504Z,47.20
2019-04-01T15:52:40.018Z,47.20
2019-04-01T15:55:12.520Z,47.10
2019-04-01T15:57:45.798Z,47.20
2019-04-01T16:00:19.665Z,47.20
2019-04-01T16:02:53.577Z,47.00
2019-04-01T16:05:26.337Z,47.00
2019-04-01T16:07:58.817Z,46.90
2019-04-01T16:10:31.517Z,47.00
2019-04-01T16:13:05.637Z,47.00
2019-04-01T16:15:38.488Z,47.10
2019-04-01T16:18:12.077Z,47.00
2019-04-01T16:20:45.417Z,47.10
2019-04-01T16:23:19.092Z,47.10
2019-04-01T16:25:52.418Z,47.00
2019-04-01T16:28:25.179Z,46.90
2019-04-01T16:30:57.777Z,47.00
2019-04-01T16:33:30.737Z,47.00
2019-04-01T16:36:03.537Z,47.20
2019-04-01T16:38:36.738Z,47.10
2019-04-01T16:41:09.081Z,47.20
2019-04-01T16:43:41.899Z,47.10
2019-04-01T16:46:16.098Z,47.10
2019-04-01T16:48:48.458Z,47.00
2019-04-01T16:51:21.518Z,47.20
2019-04-01T16:53:56.167Z,47.20
2019-04-01T16:56:28.717Z,47.20
2019-04-01T16:59:01.037Z,47.30
2019-04-01T17:01:33.638Z,47.30
2019-04-01T17:04:06.297Z,47.20
2019-04-01T17:06:38.977Z,47.20
2019-04-01T17:09:11.637Z,47.30
2019-04-01T17:11:43.940Z,47.20
2019-04-01T17:14:16.877Z,47.30
2019-04-01T17:16:52.259Z,47.30
2019-04-01T17:19:27.727Z,47.20
2019-04-01T17:21:59.057Z,47.80
2019-04-01T17:24:31.618Z,47.40
2019-04-01T17:27:14.098Z,49.50
2019-04-01T17:29:47.858Z,50.30
2019-04-01T17:32:22.099Z,50.90
2019-04-01T17:34:54.539Z,51.70
2019-04-01T17:37:26.518Z,51.30
2019-04-01T17:39:59.038Z,51.70
2019-04-01T17:42:32.778Z,51.80
2019-04-01T17:45:11.177Z,52.40
2019-04-01T17:47:44.158Z,52.70
2019-04-01T17:50:17.558Z,52.90
2019-04-01T17:52:49.940Z,53.50
2019-04-01T17:55:22.678Z,53.40
2019-04-01T17:57:55.638Z,53.40
2019-04-01T18:00:29.658Z,53.90
2019-04-01T18:03:02.780Z,54.00
2019-04-01T18:05:35.258Z,54.40
2019-04-01T18:08:07.800Z,54.40
2019-04-01T18:10:40.880Z,54.40
2019-04-01T18:13:13.058Z,54.20
2019-04-01T18:15:44.292Z,53.90
2019-04-01T18:18:26.636Z,54.60
2019-04-01T18:20:51.099Z,55.10
2019-04-01T18:23:23.118Z,55.30
2019-04-01T18:25:56.238Z,55.60
2019-04-01T18:28:27.436Z,55.30
2019-04-01T18:31:00.098Z,55.30
2019-04-01T18:33:33.060Z,55.00
2019-04-01T18:36:06.319Z,55.20
2019-04-01T18:38:40.985Z,55.30
2019-04-01T18:41:14.058Z,55.20
2019-04-01T18:43:47.358Z,55.50
2019-04-01T18:46:21.006Z,56.10
2019-04-01T18:48:52.439Z,56.30
2019-04-01T18:51:25.358Z,57.00
2019-04-01T18:53:57.838Z,56.60
2019-04-01T18:56:30.438Z,56.50
2019-04-01T18:59:02.637Z,56.70
2019-04-01T19:01:35.620Z,56.60
2019-04-01T19:04:08.218Z,57.20
2019-04-01T19:06:41.819Z,57.50
2019-04-01T19:09:14.438Z,57.60
2019-04-01T19:11:47.587Z,57.80
2019-04-01T19:14:20.379Z,58.20
2019-04-01T19:16:53.238Z,58.40
2019-04-01T19:19:26.038Z,58.60
2019-04-01T19:21:58.758Z,59.00
2019-04-01T19:24:31.454Z,59.40
2019-04-01T19:27:03.595Z,59.20
2019-04-01T19:29:36.259Z,59.70
2019-04-01T19:32:09.435Z,59.30
2019-04-01T19:34:42.712Z,59.50
2019-04-01T19:37:18.052Z,60.30
2019-04-01T19:39:48.651Z,60.10
2019-04-01T19:42:20.891Z,60.50
2019-04-01T19:44:54.391Z,60.50
2019-04-01T19:47:27.371Z,60.30
2019-04-01T19:49:59.471Z,60.60
2019-04-01T19:52:33.031Z,60.70
2019-04-01T19:55:06.471Z,60.60
2019-04-01T19:57:38.792Z,60.90
2019-04-01T20:00:11.912Z,61.00
2019-04-01T20:02:44.592Z,61.00
2019-04-01T20:05:17.057Z,60.70
2019-04-01T20:07:49.194Z,61.30
2019-04-01T20:10:21.752Z,62.10
2019-04-01T20:12:55.154Z,62.60
2019-04-01T20:15:27.431Z,62.30
2019-04-01T20:18:00.233Z,62.30
2019-04-01T20:20:33.672Z,62.40
2019-04-01T20:23:06.432Z,61.70
2019-04-01T20:25:39.752Z,62.20
2019-04-01T20:28:11.073Z,62.50
2019-04-01T20:30:43.613Z,62.70
2019-04-01T20:33:18.350Z,62.70
2019-04-01T20:35:51.714Z,62.90
2019-04-01T20:38:24.193Z,63.30
2019-04-01T20:40:56.471Z,63.30
2019-04-01T20:43:29.751Z,63.60
2019-04-01T20:46:02.151Z,63.70
2019-04-01T20:48:34.652Z,63.70
2019-04-01T20:51:08.292Z,64.00
2019-04-01T20:53:42.392Z,64.00
2019-04-01T20:56:14.871Z,64.10
2019-04-01T20:58:46.954Z,64.40
2019-04-01T21:01:19.631Z,64.40
2019-04-01T21:03:53.412Z,64.60
2019-04-01T21:06:26.175Z,65.00
2019-04-01T21:08:59.571Z,64.90
2019-04-01T21:11:32.512Z,65.00
2019-04-01T21:14:05.796Z,65.00
2019-04-01T21:16:38.172Z,65.10
2019-04-01T21:19:10.632Z,65.10
2019-04-01T21:21:43.813Z,65.30
2019-04-01T21:24:16.232Z,65.20
2019-04-01T21:26:48.752Z,65.60
2019-04-01T21:29:22.850Z,65.60
2019-04-01T21:31:56.132Z,65.50
2019-04-01T21:34:28.691Z,65.70
2019-04-01T21:37:03.312Z,65.70
2019-04-01T21:39:37.810Z,65.90
2019-04-01T21:42:09.811Z,66.30
2019-04-01T21:44:42.471Z,65.60
2019-04-01T21:47:13.954Z,65.80
2019-04-01T21:49:46.691Z,66.00
2019-04-01T21:52:19.731Z,66.10
2019-04-01T21:54:52.912Z,66.20
2019-04-01T21:57:26.312Z,66.20
2019-04-01T21:59:58.632Z,66.40
2019-04-01T22:02:36.078Z,66.50
2019-04-01T22:05:05.011Z,66.60
2019-04-01T22:07:38.166Z,66.90
2019-04-01T22:10:12.072Z,67.20
2019-04-01T22:12:45.111Z,67.80
2019-04-01T22:15:18.839Z,68.10
2019-04-01T22:17:52.071Z,68.10
2019-04-01T22:20:25.412Z,68.00
2019-04-01T22:22:58.192Z,68.10
2019-04-01T22:25:30.473Z,68.00
2019-04-01T22:28:02.652Z,68.10
2019-04-01T22:30:34.952Z,68.10
2019-04-01T22:33:07.492Z,68.20
2019-04-01T22:35:41.509Z,68.20
2019-04-01T22:38:24.542Z,69.10
2019-04-01T22:40:48.952Z,68.70
2019-04-01T22:43:22.152Z,69.00
2019-04-01T22:45:55.252Z,69.20
2019-04-01T22:48:27.551Z,68.80
2019-04-01T22:51:00.061Z,68.80
2019-04-01T22:53:33.297Z,70.70
2019-04-01T22:56:06.631Z,68.80
2019-04-01T22:58:39.271Z,68.60
2019-04-01T23:01:13.278Z,68.50
2019-04-01T23:03:46.072Z,68.90
2019-04-01T23:06:18.671Z,68.60
2019-04-01T23:08:51.291Z,68.00
2019-04-01T23:11:25.104Z,70.10
2019-04-01T23:13:57.411Z,70.60
2019-04-01T23:16:29.721Z,70.80
2019-04-01T23:19:02.471Z,69.20
2019-04-01T23:21:35.931Z,70.60
2019-04-01T23:24:09.712Z,71.10
2019-04-01T23:26:42.592Z,70.50
2019-04-01T23:29:15.072Z,70.30
2019-04-01T23:31:48.451Z,70.10
2019-04-01T23:34:21.352Z,70.00
2019-04-01T23:36:54.491Z,69.70
2019-04-01T23:39:27.072Z,69.90
2019-04-01T23:41:59.918Z,70.10
2019-04-01T23:44:32.352Z,70.50
2019-04-01T23:47:05.532Z,70.80
2019-04-01T23:49:38.111Z,70.70
2019-04-01T23:52:10.353Z,70.90
2019-04-01T23:54:43.373Z,71.00
2019-04-01T23:57:16.535Z,70.80
2019-04-01T23:59:50.113Z,70.60
